sensor_id;sensor_type;location;lat;lon;timestamp;P1;durP1;ratioP1;P2;durP2;ratioP2
27666;SDS011;15074;50.940;5.282;2022-10-14T00:01:33;12.23;;;11.02;;
27666;SDS011;15074;50.940;5.282;2022-10-14T00:03:59;13.00;;;11.88;;
27666;SDS011;15074;50.940;5.282;2022-10-14T00:06:26;15.07;;;11.32;;
27666;SDS011;15074;50.940;5.282;2022-10-14T00:08:54;11.65;;;10.65;;
27666;SDS011;15074;50.940;5.282;2022-10-14T00:11:24;13.50;;;11.18;;
27666;SDS011;15074;50.940;5.282;2022-10-14T00:13:53;11.40;;;10.50;;
27666;SDS011;15074;50.940;5.282;2022-10-14T00:16:21;14.27;;;11.07;;
27666;SDS011;15074;50.940;5.282;2022-10-14T00:18:48;12.98;;;10.00;;
27666;SDS011;15074;50.940;5.282;2022-10-14T00:21:15;10.93;;;9.93;;
27666;SDS011;15074;50.940;5.282;2022-10-14T00:23:41;11.23;;;9.88;;
27666;SDS011;15074;50.940;5.282;2022-10-14T00:26:18;10.30;;;9.30;;
27666;SDS011;15074;50.940;5.282;2022-10-14T00:28:46;10.05;;;9.00;;
27666;SDS011;15074;50.940;5.282;2022-10-14T00:31:12;12.65;;;9.05;;
27666;SDS011;15074;50.940;5.282;2022-10-14T00:33:38;10.15;;;8.80;;
27666;SDS011;15074;50.940;5.282;2022-10-14T00:36:04;9.13;;;8.40;;
27666;SDS011;15074;50.940;5.282;2022-10-14T00:38:30;8.93;;;8.23;;
27666;SDS011;15074;50.940;5.282;2022-10-14T00:40:56;8.85;;;8.15;;
27666;SDS011;15074;50.940;5.282;2022-10-14T00:43:23;8.30;;;7.50;;
27666;SDS011;15074;50.940;5.282;2022-10-14T00:48:17;8.70;;;7.97;;
27666;SDS011;15074;50.940;5.282;2022-10-14T00:50:46;8.23;;;7.43;;
27666;SDS011;15074;50.940;5.282;2022-10-14T00:53:14;8.07;;;7.38;;
27666;SDS011;15074;50.940;5.282;2022-10-14T00:55:40;8.13;;;7.32;;
27666;SDS011;15074;50.940;5.282;2022-10-14T00:58:06;7.20;;;6.57;;
27666;SDS011;15074;50.940;5.282;2022-10-14T01:00:33;7.15;;;6.53;;
27666;SDS011;15074;50.940;5.282;2022-10-14T01:03:05;7.55;;;6.95;;
27666;SDS011;15074;50.940;5.282;2022-10-14T01:05:34;7.25;;;6.55;;
27666;SDS011;15074;50.940;5.282;2022-10-14T01:08:10;7.80;;;7.20;;
27666;SDS011;15074;50.940;5.282;2022-10-14T01:13:33;7.20;;;6.07;;
27666;SDS011;15074;50.940;5.282;2022-10-14T01:21:11;6.53;;;6.00;;
27666;SDS011;15074;50.940;5.282;2022-10-14T01:32:24;5.18;;;4.78;;
27666;SDS011;15074;50.940;5.282;2022-10-14T01:35:12;6.20;;;5.60;;
27666;SDS011;15074;50.940;5.282;2022-10-14T01:37:57;5.45;;;4.68;;
27666;SDS011;15074;50.940;5.282;2022-10-14T01:43:22;4.60;;;4.10;;
27666;SDS011;15074;50.940;5.282;2022-10-14T01:45:51;5.07;;;4.30;;
27666;SDS011;15074;50.940;5.282;2022-10-14T01:48:19;4.63;;;4.20;;
27666;SDS011;15074;50.940;5.282;2022-10-14T01:50:48;4.28;;;3.88;;
27666;SDS011;15074;50.940;5.282;2022-10-14T01:53:18;4.63;;;4.13;;
27666;SDS011;15074;50.940;5.282;2022-10-14T01:55:47;4.47;;;3.83;;
27666;SDS011;15074;50.940;5.282;2022-10-14T01:58:15;5.70;;;3.90;;
27666;SDS011;15074;50.940;5.282;2022-10-14T02:00:43;4.40;;;3.58;;
27666;SDS011;15074;50.940;5.282;2022-10-14T02:03:11;3.72;;;3.42;;
27666;SDS011;15074;50.940;5.282;2022-10-14T02:05:40;3.95;;;3.63;;
27666;SDS011;15074;50.940;5.282;2022-10-14T02:08:24;3.65;;;3.13;;
27666;SDS011;15074;50.940;5.282;2022-10-14T02:11:03;4.22;;;3.17;;
27666;SDS011;15074;50.940;5.282;2022-10-14T02:14:27;4.43;;;3.70;;
27666;SDS011;15074;50.940;5.282;2022-10-14T02:16:48;3.47;;;3.05;;
27666;SDS011;15074;50.940;5.282;2022-10-14T02:22:21;3.85;;;3.53;;
27666;SDS011;15074;50.940;5.282;2022-10-14T02:24:54;3.88;;;3.13;;
27666;SDS011;15074;50.940;5.282;2022-10-14T02:27:25;4.07;;;3.47;;
27666;SDS011;15074;50.940;5.282;2022-10-14T02:29:54;4.00;;;3.65;;
27666;SDS011;15074;50.940;5.282;2022-10-14T02:32:21;4.22;;;3.83;;
27666;SDS011;15074;50.940;5.282;2022-10-14T02:34:49;4.95;;;3.92;;
27666;SDS011;15074;50.940;5.282;2022-10-14T02:37:18;4.90;;;3.53;;
27666;SDS011;15074;50.940;5.282;2022-10-14T02:40:08;8.10;;;4.15;;
27666;SDS011;15074;50.940;5.282;2022-10-14T02:42:40;4.82;;;3.60;;
27666;SDS011;15074;50.940;5.282;2022-10-14T02:45:06;4.13;;;3.58;;
27666;SDS011;15074;50.940;5.282;2022-10-14T02:47:33;3.97;;;3.67;;
27666;SDS011;15074;50.940;5.282;2022-10-14T02:49:59;4.72;;;4.05;;
27666;SDS011;15074;50.940;5.282;2022-10-14T02:52:24;6.15;;;3.78;;
27666;SDS011;15074;50.940;5.282;2022-10-14T02:54:50;3.67;;;3.25;;
27666;SDS011;15074;50.940;5.282;2022-10-14T02:57:15;4.80;;;3.63;;
27666;SDS011;15074;50.940;5.282;2022-10-14T02:59:41;4.70;;;3.38;;
27666;SDS011;15074;50.940;5.282;2022-10-14T03:02:07;4.88;;;3.25;;
27666;SDS011;15074;50.940;5.282;2022-10-14T03:04:33;4.78;;;3.13;;
27666;SDS011;15074;50.940;5.282;2022-10-14T03:06:59;4.80;;;4.25;;
27666;SDS011;15074;50.940;5.282;2022-10-14T03:09:24;4.40;;;3.97;;
27666;SDS011;15074;50.940;5.282;2022-10-14T03:11:50;4.53;;;4.00;;
27666;SDS011;15074;50.940;5.282;2022-10-14T03:14:16;4.65;;;4.03;;
27666;SDS011;15074;50.940;5.282;2022-10-14T03:16:41;4.72;;;4.07;;
27666;SDS011;15074;50.940;5.282;2022-10-14T03:19:07;4.47;;;3.80;;
27666;SDS011;15074;50.940;5.282;2022-10-14T03:21:32;4.63;;;3.70;;
27666;SDS011;15074;50.940;5.282;2022-10-14T03:23:58;4.60;;;4.07;;
27666;SDS011;15074;50.940;5.282;2022-10-14T03:26:25;4.60;;;3.78;;
27666;SDS011;15074;50.940;5.282;2022-10-14T03:28:51;12.05;;;4.90;;
27666;SDS011;15074;50.940;5.282;2022-10-14T03:31:17;5.07;;;4.57;;
27666;SDS011;15074;50.940;5.282;2022-10-14T03:33:43;4.88;;;4.10;;
27666;SDS011;15074;50.940;5.282;2022-10-14T03:36:08;4.50;;;3.92;;
27666;SDS011;15074;50.940;5.282;2022-10-14T03:38:34;4.63;;;3.80;;
27666;SDS011;15074;50.940;5.282;2022-10-14T03:40:59;4.70;;;3.38;;
27666;SDS011;15074;50.940;5.282;2022-10-14T03:43:25;5.20;;;4.03;;
27666;SDS011;15074;50.940;5.282;2022-10-14T03:45:52;4.72;;;3.40;;
27666;SDS011;15074;50.940;5.282;2022-10-14T03:48:18;3.80;;;3.50;;
27666;SDS011;15074;50.940;5.282;2022-10-14T03:50:43;4.32;;;3.92;;
27666;SDS011;15074;50.940;5.282;2022-10-14T03:53:10;3.95;;;3.55;;
27666;SDS011;15074;50.940;5.282;2022-10-14T03:55:36;4.00;;;3.40;;
27666;SDS011;15074;50.940;5.282;2022-10-14T03:58:02;3.30;;;2.85;;
27666;SDS011;15074;50.940;5.282;2022-10-14T04:00:28;5.43;;;3.60;;
27666;SDS011;15074;50.940;5.282;2022-10-14T04:02:53;3.70;;;3.40;;
27666;SDS011;15074;50.940;5.282;2022-10-14T04:05:19;4.50;;;4.10;;
27666;SDS011;15074;50.940;5.282;2022-10-14T04:07:45;4.22;;;3.50;;
27666;SDS011;15074;50.940;5.282;2022-10-14T04:10:11;4.75;;;4.15;;
27666;SDS011;15074;50.940;5.282;2022-10-14T04:12:37;4.40;;;3.88;;
27666;SDS011;15074;50.940;5.282;2022-10-14T04:15:05;4.07;;;3.65;;
27666;SDS011;15074;50.940;5.282;2022-10-14T04:17:31;5.03;;;4.53;;
27666;SDS011;15074;50.940;5.282;2022-10-14T04:19:57;4.30;;;3.90;;
27666;SDS011;15074;50.940;5.282;2022-10-14T04:22:23;5.57;;;4.53;;
27666;SDS011;15074;50.940;5.282;2022-10-14T04:24:48;4.25;;;3.85;;
27666;SDS011;15074;50.940;5.282;2022-10-14T04:27:14;4.70;;;4.20;;
27666;SDS011;15074;50.940;5.282;2022-10-14T04:29:40;4.32;;;3.92;;
27666;SDS011;15074;50.940;5.282;2022-10-14T04:32:06;7.03;;;4.15;;
27666;SDS011;15074;50.940;5.282;2022-10-14T04:34:32;4.43;;;4.03;;
27666;SDS011;15074;50.940;5.282;2022-10-14T04:36:57;4.93;;;4.45;;
27666;SDS011;15074;50.940;5.282;2022-10-14T04:39:23;5.00;;;4.38;;
27666;SDS011;15074;50.940;5.282;2022-10-14T04:41:48;4.40;;;4.00;;
27666;SDS011;15074;50.940;5.282;2022-10-14T04:44:14;5.10;;;4.63;;
27666;SDS011;15074;50.940;5.282;2022-10-14T04:46:40;5.63;;;5.13;;
27666;SDS011;15074;50.940;5.282;2022-10-14T04:49:06;7.75;;;4.93;;
27666;SDS011;15074;50.940;5.282;2022-10-14T04:51:32;6.63;;;5.47;;
27666;SDS011;15074;50.940;5.282;2022-10-14T04:53:58;5.70;;;5.20;;
27666;SDS011;15074;50.940;5.282;2022-10-14T04:56:24;5.53;;;5.00;;
27666;SDS011;15074;50.940;5.282;2022-10-14T04:58:50;9.00;;;5.78;;
27666;SDS011;15074;50.940;5.282;2022-10-14T05:01:15;6.57;;;5.97;;
27666;SDS011;15074;50.940;5.282;2022-10-14T05:03:42;5.95;;;5.45;;
27666;SDS011;15074;50.940;5.282;2022-10-14T05:06:08;5.60;;;4.95;;
27666;SDS011;15074;50.940;5.282;2022-10-14T05:08:34;6.00;;;5.40;;
27666;SDS011;15074;50.940;5.282;2022-10-14T05:11:00;6.13;;;5.60;;
27666;SDS011;15074;50.940;5.282;2022-10-14T05:13:27;5.72;;;5.22;;
27666;SDS011;15074;50.940;5.282;2022-10-14T05:15:55;6.25;;;5.65;;
27666;SDS011;15074;50.940;5.282;2022-10-14T05:18:21;6.65;;;6.05;;
27666;SDS011;15074;50.940;5.282;2022-10-14T05:20:46;6.97;;;6.38;;
27666;SDS011;15074;50.940;5.282;2022-10-14T05:23:12;6.93;;;6.32;;
27666;SDS011;15074;50.940;5.282;2022-10-14T05:25:38;6.47;;;5.93;;
27666;SDS011;15074;50.940;5.282;2022-10-14T05:28:04;7.32;;;6.32;;
27666;SDS011;15074;50.940;5.282;2022-10-14T05:30:29;6.60;;;5.95;;
27666;SDS011;15074;50.940;5.282;2022-10-14T05:32:55;6.47;;;5.88;;
27666;SDS011;15074;50.940;5.282;2022-10-14T05:35:21;7.20;;;6.50;;
27666;SDS011;15074;50.940;5.282;2022-10-14T05:37:46;6.20;;;5.70;;
27666;SDS011;15074;50.940;5.282;2022-10-14T05:40:12;7.03;;;5.95;;
27666;SDS011;15074;50.940;5.282;2022-10-14T05:42:38;6.47;;;5.88;;
27666;SDS011;15074;50.940;5.282;2022-10-14T05:45:03;6.32;;;5.72;;
27666;SDS011;15074;50.940;5.282;2022-10-14T05:47:29;6.55;;;6.03;;
27666;SDS011;15074;50.940;5.282;2022-10-14T05:49:55;6.22;;;5.30;;
27666;SDS011;15074;50.940;5.282;2022-10-14T05:52:21;6.40;;;5.80;;
27666;SDS011;15074;50.940;5.282;2022-10-14T05:54:46;6.47;;;5.88;;
27666;SDS011;15074;50.940;5.282;2022-10-14T05:57:12;6.70;;;6.10;;
27666;SDS011;15074;50.940;5.282;2022-10-14T05:59:37;7.32;;;6.13;;
27666;SDS011;15074;50.940;5.282;2022-10-14T06:02:03;7.05;;;6.45;;
27666;SDS011;15074;50.940;5.282;2022-10-14T06:04:29;7.60;;;6.20;;
27666;SDS011;15074;50.940;5.282;2022-10-14T06:06:55;6.38;;;5.85;;
27666;SDS011;15074;50.940;5.282;2022-10-14T06:09:20;9.27;;;6.32;;
27666;SDS011;15074;50.940;5.282;2022-10-14T06:11:46;5.88;;;5.35;;
27666;SDS011;15074;50.940;5.282;2022-10-14T06:14:12;6.78;;;6.20;;
27666;SDS011;15074;50.940;5.282;2022-10-14T06:16:37;6.00;;;5.50;;
27666;SDS011;15074;50.940;5.282;2022-10-14T06:19:03;7.07;;;6.43;;
27666;SDS011;15074;50.940;5.282;2022-10-14T06:21:29;7.10;;;5.90;;
27666;SDS011;15074;50.940;5.282;2022-10-14T06:23:54;6.53;;;5.95;;
27666;SDS011;15074;50.940;5.282;2022-10-14T06:26:20;7.15;;;6.30;;
27666;SDS011;15074;50.940;5.282;2022-10-14T06:28:46;5.90;;;5.30;;
27666;SDS011;15074;50.940;5.282;2022-10-14T06:31:11;6.45;;;5.95;;
27666;SDS011;15074;50.940;5.282;2022-10-14T06:33:37;5.30;;;4.80;;
27666;SDS011;15074;50.940;5.282;2022-10-14T06:36:03;6.55;;;5.57;;
27666;SDS011;15074;50.940;5.282;2022-10-14T06:38:29;5.10;;;4.70;;
27666;SDS011;15074;50.940;5.282;2022-10-14T06:40:55;4.93;;;4.45;;
27666;SDS011;15074;50.940;5.282;2022-10-14T06:43:21;4.78;;;4.38;;
27666;SDS011;15074;50.940;5.282;2022-10-14T06:45:47;5.43;;;4.90;;
27666;SDS011;15074;50.940;5.282;2022-10-14T06:48:13;6.47;;;4.97;;
27666;SDS011;15074;50.940;5.282;2022-10-14T06:50:40;5.13;;;4.50;;
27666;SDS011;15074;50.940;5.282;2022-10-14T06:53:06;5.43;;;4.95;;
27666;SDS011;15074;50.940;5.282;2022-10-14T06:55:32;5.20;;;4.72;;
27666;SDS011;15074;50.940;5.282;2022-10-14T06:57:58;5.40;;;5.00;;
27666;SDS011;15074;50.940;5.282;2022-10-14T07:00:23;5.38;;;4.57;;
27666;SDS011;15074;50.940;5.282;2022-10-14T07:02:49;4.45;;;4.05;;
27666;SDS011;15074;50.940;5.282;2022-10-14T07:05:15;5.05;;;4.63;;
27666;SDS011;15074;50.940;5.282;2022-10-14T07:07:40;5.78;;;5.22;;
27666;SDS011;15074;50.940;5.282;2022-10-14T07:10:06;5.43;;;4.93;;
27666;SDS011;15074;50.940;5.282;2022-10-14T07:12:32;5.75;;;5.15;;
27666;SDS011;15074;50.940;5.282;2022-10-14T07:14:58;6.05;;;5.45;;
27666;SDS011;15074;50.940;5.282;2022-10-14T07:17:24;5.50;;;5.00;;
27666;SDS011;15074;50.940;5.282;2022-10-14T07:19:49;6.05;;;5.22;;
27666;SDS011;15074;50.940;5.282;2022-10-14T07:22:15;11.18;;;5.45;;
27666;SDS011;15074;50.940;5.282;2022-10-14T07:24:41;6.22;;;5.70;;
27666;SDS011;15074;50.940;5.282;2022-10-14T07:27:08;6.93;;;6.22;;
27666;SDS011;15074;50.940;5.282;2022-10-14T07:29:34;6.75;;;6.15;;
27666;SDS011;15074;50.940;5.282;2022-10-14T07:32:00;8.85;;;6.65;;
27666;SDS011;15074;50.940;5.282;2022-10-14T07:34:26;8.05;;;7.25;;
27666;SDS011;15074;50.940;5.282;2022-10-14T07:36:51;8.98;;;7.13;;
27666;SDS011;15074;50.940;5.282;2022-10-14T07:39:17;9.35;;;6.97;;
27666;SDS011;15074;50.940;5.282;2022-10-14T07:41:43;8.35;;;7.60;;
27666;SDS011;15074;50.940;5.282;2022-10-14T07:44:09;8.68;;;7.78;;
27666;SDS011;15074;50.940;5.282;2022-10-14T07:46:38;8.85;;;7.95;;
27666;SDS011;15074;50.940;5.282;2022-10-14T07:49:18;8.35;;;7.22;;
27666;SDS011;15074;50.940;5.282;2022-10-14T07:51:45;10.00;;;7.68;;
27666;SDS011;15074;50.940;5.282;2022-10-14T07:54:13;12.57;;;9.40;;
27666;SDS011;15074;50.940;5.282;2022-10-14T07:56:41;10.70;;;8.80;;
27666;SDS011;15074;50.940;5.282;2022-10-14T07:59:07;11.68;;;8.82;;
27666;SDS011;15074;50.940;5.282;2022-10-14T08:01:33;11.18;;;8.70;;
27666;SDS011;15074;50.940;5.282;2022-10-14T08:03:59;11.35;;;8.68;;
27666;SDS011;15074;50.940;5.282;2022-10-14T08:06:25;10.75;;;8.57;;
27666;SDS011;15074;50.940;5.282;2022-10-14T08:08:51;11.10;;;8.57;;
27666;SDS011;15074;50.940;5.282;2022-10-14T08:11:20;11.38;;;8.98;;
27666;SDS011;15074;50.940;5.282;2022-10-14T08:13:48;10.00;;;9.02;;
27666;SDS011;15074;50.940;5.282;2022-10-14T08:16:16;9.77;;;7.80;;
27666;SDS011;15074;50.940;5.282;2022-10-14T08:18:44;9.00;;;8.15;;
27666;SDS011;15074;50.940;5.282;2022-10-14T08:21:11;10.90;;;9.00;;
27666;SDS011;15074;50.940;5.282;2022-10-14T08:23:37;8.95;;;8.05;;
27666;SDS011;15074;50.940;5.282;2022-10-14T08:26:03;8.63;;;7.82;;
27666;SDS011;15074;50.940;5.282;2022-10-14T08:28:28;9.45;;;8.48;;
27666;SDS011;15074;50.940;5.282;2022-10-14T08:30:54;8.43;;;7.43;;
27666;SDS011;15074;50.940;5.282;2022-10-14T08:33:20;8.60;;;7.70;;
27666;SDS011;15074;50.940;5.282;2022-10-14T08:35:46;8.65;;;7.78;;
27666;SDS011;15074;50.940;5.282;2022-10-14T08:38:11;10.02;;;7.95;;
27666;SDS011;15074;50.940;5.282;2022-10-14T08:40:48;8.70;;;7.45;;
27666;SDS011;15074;50.940;5.282;2022-10-14T08:43:31;8.10;;;7.25;;
27666;SDS011;15074;50.940;5.282;2022-10-14T08:46:23;8.80;;;7.43;;
27666;SDS011;15074;50.940;5.282;2022-10-14T08:49:02;8.55;;;7.72;;
27666;SDS011;15074;50.940;5.282;2022-10-14T08:51:51;10.15;;;8.35;;
27666;SDS011;15074;50.940;5.282;2022-10-14T08:54:34;9.07;;;7.40;;
27666;SDS011;15074;50.940;5.282;2022-10-14T08:57:02;8.73;;;7.72;;
27666;SDS011;15074;50.940;5.282;2022-10-14T08:59:39;9.07;;;8.00;;
27666;SDS011;15074;50.940;5.282;2022-10-14T09:04:49;8.25;;;7.50;;
27666;SDS011;15074;50.940;5.282;2022-10-14T09:07:16;7.88;;;7.20;;
27666;SDS011;15074;50.940;5.282;2022-10-14T09:09:44;8.05;;;7.25;;
27666;SDS011;15074;50.940;5.282;2022-10-14T09:12:16;9.18;;;7.53;;
27666;SDS011;15074;50.940;5.282;2022-10-14T09:14:46;7.72;;;7.03;;
27666;SDS011;15074;50.940;5.282;2022-10-14T09:20:27;8.02;;;7.30;;
27666;SDS011;15074;50.940;5.282;2022-10-14T09:22:56;8.95;;;6.47;;
27666;SDS011;15074;50.940;5.282;2022-10-14T09:25:28;7.65;;;6.90;;
27666;SDS011;15074;50.940;5.282;2022-10-14T09:27:57;6.68;;;5.75;;
27666;SDS011;15074;50.940;5.282;2022-10-14T09:30:23;6.82;;;6.03;;
27666;SDS011;15074;50.940;5.282;2022-10-14T09:32:52;8.63;;;6.70;;
27666;SDS011;15074;50.940;5.282;2022-10-14T09:35:22;6.43;;;5.63;;
27666;SDS011;15074;50.940;5.282;2022-10-14T09:37:52;6.75;;;6.05;;
27666;SDS011;15074;50.940;5.282;2022-10-14T09:40:29;6.53;;;5.85;;
27666;SDS011;15074;50.940;5.282;2022-10-14T09:43:09;5.68;;;5.15;;
27666;SDS011;15074;50.940;5.282;2022-10-14T09:45:49;5.30;;;4.68;;
27666;SDS011;15074;50.940;5.282;2022-10-14T09:48:22;6.22;;;4.68;;
27666;SDS011;15074;50.940;5.282;2022-10-14T09:51:07;4.30;;;3.85;;
27666;SDS011;15074;50.940;5.282;2022-10-14T09:53:45;4.72;;;4.25;;
27666;SDS011;15074;50.940;5.282;2022-10-14T09:56:14;4.15;;;3.75;;
27666;SDS011;15074;50.940;5.282;2022-10-14T09:58:52;9.85;;;3.92;;
27666;SDS011;15074;50.940;5.282;2022-10-14T10:01:24;4.35;;;3.60;;
27666;SDS011;15074;50.940;5.282;2022-10-14T10:03:56;3.45;;;2.88;;
27666;SDS011;15074;50.940;5.282;2022-10-14T10:06:50;3.70;;;3.40;;
27666;SDS011;15074;50.940;5.282;2022-10-14T10:09:17;3.88;;;3.17;;
27666;SDS011;15074;50.940;5.282;2022-10-14T10:11:44;4.07;;;3.35;;
27666;SDS011;15074;50.940;5.282;2022-10-14T10:14:21;3.42;;;3.13;;
27666;SDS011;15074;50.940;5.282;2022-10-14T10:16:49;4.28;;;3.30;;
27666;SDS011;15074;50.940;5.282;2022-10-14T10:19:22;3.85;;;2.40;;
27666;SDS011;15074;50.940;5.282;2022-10-14T10:22:18;4.22;;;1.95;;
27666;SDS011;15074;50.940;5.282;2022-10-14T10:27:24;2.38;;;2.17;;
27666;SDS011;15074;50.940;5.282;2022-10-14T10:29:52;2.75;;;1.60;;
27666;SDS011;15074;50.940;5.282;2022-10-14T10:32:32;3.45;;;1.80;;
27666;SDS011;15074;50.940;5.282;2022-10-14T10:52:17;2.65;;;1.60;;
27666;SDS011;15074;50.940;5.282;2022-10-14T10:54:50;1.80;;;1.40;;
27666;SDS011;15074;50.940;5.282;2022-10-14T11:00:19;2.08;;;1.50;;
27666;SDS011;15074;50.940;5.282;2022-10-14T11:08:08;2.28;;;1.20;;
27666;SDS011;15074;50.940;5.282;2022-10-14T11:17:13;1.30;;;1.20;;
27666;SDS011;15074;50.940;5.282;2022-10-14T11:22:49;1.90;;;1.23;;
27666;SDS011;15074;50.940;5.282;2022-10-14T11:36:43;2.53;;;1.92;;
27666;SDS011;15074;50.940;5.282;2022-10-14T11:39:55;3.20;;;2.35;;
27666;SDS011;15074;50.940;5.282;2022-10-14T11:42:42;2.50;;;2.28;;
27666;SDS011;15074;50.940;5.282;2022-10-14T11:56:41;2.90;;;2.47;;
27666;SDS011;15074;50.940;5.282;2022-10-14T12:01:58;3.45;;;3.00;;
27666;SDS011;15074;50.940;5.282;2022-10-14T12:04:30;3.20;;;2.90;;
27666;SDS011;15074;50.940;5.282;2022-10-14T12:07:04;2.63;;;2.42;;
27666;SDS011;15074;50.940;5.282;2022-10-14T12:09:38;3.17;;;2.75;;
27666;SDS011;15074;50.940;5.282;2022-10-14T12:12:15;2.25;;;2.05;;
27666;SDS011;15074;50.940;5.282;2022-10-14T12:14:53;2.97;;;2.15;;
27666;SDS011;15074;50.940;5.282;2022-10-14T12:17:30;2.40;;;2.20;;
27666;SDS011;15074;50.940;5.282;2022-10-14T12:19:58;3.72;;;1.80;;
27666;SDS011;15074;50.940;5.282;2022-10-14T12:22:30;2.15;;;1.85;;
27666;SDS011;15074;50.940;5.282;2022-10-14T12:24:58;2.20;;;1.88;;
27666;SDS011;15074;50.940;5.282;2022-10-14T12:27:27;2.55;;;1.90;;
27666;SDS011;15074;50.940;5.282;2022-10-14T12:29:54;1.90;;;1.60;;
27666;SDS011;15074;50.940;5.282;2022-10-14T12:45:15;1.88;;;1.33;;
27666;SDS011;15074;50.940;5.282;2022-10-14T12:47:45;2.33;;;1.77;;
27666;SDS011;15074;50.940;5.282;2022-10-14T12:52:40;2.35;;;1.58;;
27666;SDS011;15074;50.940;5.282;2022-10-14T12:55:17;1.38;;;1.23;;
27666;SDS011;15074;50.940;5.282;2022-10-14T12:57:53;1.40;;;1.30;;
27666;SDS011;15074;50.940;5.282;2022-10-14T13:02:46;1.23;;;0.80;;
27666;SDS011;15074;50.940;5.282;2022-10-14T13:16:06;1.13;;;0.95;;
27666;SDS011;15074;50.940;5.282;2022-10-14T13:18:53;2.50;;;0.90;;
27666;SDS011;15074;50.940;5.282;2022-10-14T13:24:00;0.90;;;0.90;;
27666;SDS011;15074;50.940;5.282;2022-10-14T13:34:55;2.90;;;0.98;;
27666;SDS011;15074;50.940;5.282;2022-10-14T13:38:12;1.10;;;1.00;;
27666;SDS011;15074;50.940;5.282;2022-10-14T13:40:36;1.58;;;1.08;;
27666;SDS011;15074;50.940;5.282;2022-10-14T13:43:11;1.35;;;1.10;;
27666;SDS011;15074;50.940;5.282;2022-10-14T13:45:38;2.08;;;1.20;;
27666;SDS011;15074;50.940;5.282;2022-10-14T13:48:14;1.50;;;1.00;;
27666;SDS011;15074;50.940;5.282;2022-10-14T13:50:47;1.00;;;0.90;;
27666;SDS011;15074;50.940;5.282;2022-10-14T13:53:22;1.08;;;0.98;;
27666;SDS011;15074;50.940;5.282;2022-10-14T13:55:48;1.33;;;1.10;;
27666;SDS011;15074;50.940;5.282;2022-10-14T13:58:17;1.08;;;0.95;;
27666;SDS011;15074;50.940;5.282;2022-10-14T14:03:17;1.20;;;0.95;;
27666;SDS011;15074;50.940;5.282;2022-10-14T14:05:50;1.33;;;0.90;;
27666;SDS011;15074;50.940;5.282;2022-10-14T14:08:24;1.10;;;1.00;;
27666;SDS011;15074;50.940;5.282;2022-10-14T14:10:53;1.50;;;1.30;;
27666;SDS011;15074;50.940;5.282;2022-10-14T14:13:22;1.15;;;1.05;;
27666;SDS011;15074;50.940;5.282;2022-10-14T14:15:49;1.70;;;1.20;;
27666;SDS011;15074;50.940;5.282;2022-10-14T14:21:04;1.58;;;1.35;;
27666;SDS011;15074;50.940;5.282;2022-10-14T14:23:33;2.08;;;1.70;;
27666;SDS011;15074;50.940;5.282;2022-10-14T14:25:59;2.25;;;1.40;;
27666;SDS011;15074;50.940;5.282;2022-10-14T14:28:25;1.80;;;1.70;;
27666;SDS011;15074;50.940;5.282;2022-10-14T14:30:56;1.95;;;1.75;;
27666;SDS011;15074;50.940;5.282;2022-10-14T14:33:31;2.13;;;1.80;;
27666;SDS011;15074;50.940;5.282;2022-10-14T14:35:59;2.70;;;1.65;;
27666;SDS011;15074;50.940;5.282;2022-10-14T14:38:31;1.67;;;1.58;;
27666;SDS011;15074;50.940;5.282;2022-10-14T14:41:04;1.55;;;1.45;;
27666;SDS011;15074;50.940;5.282;2022-10-14T14:43:31;2.10;;;1.90;;
27666;SDS011;15074;50.940;5.282;2022-10-14T14:46:02;2.50;;;2.30;;
27666;SDS011;15074;50.940;5.282;2022-10-14T14:48:29;2.58;;;2.10;;
27666;SDS011;15074;50.940;5.282;2022-10-14T14:50:57;3.05;;;2.63;;
27666;SDS011;15074;50.940;5.282;2022-10-14T14:53:24;3.20;;;2.90;;
27666;SDS011;15074;50.940;5.282;2022-10-14T14:58:44;3.20;;;2.60;;
27666;SDS011;15074;50.940;5.282;2022-10-14T15:01:24;2.70;;;2.30;;
27666;SDS011;15074;50.940;5.282;2022-10-14T15:04:24;2.70;;;2.50;;
27666;SDS011;15074;50.940;5.282;2022-10-14T15:06:51;3.42;;;3.10;;
27666;SDS011;15074;50.940;5.282;2022-10-14T15:12:06;4.03;;;3.63;;
27666;SDS011;15074;50.940;5.282;2022-10-14T15:14:45;4.05;;;3.65;;
27666;SDS011;15074;50.940;5.282;2022-10-14T15:17:32;3.83;;;3.53;;
27666;SDS011;15074;50.940;5.282;2022-10-14T15:20:18;3.95;;;3.38;;
27666;SDS011;15074;50.940;5.282;2022-10-14T15:22:52;4.00;;;3.60;;
27666;SDS011;15074;50.940;5.282;2022-10-14T15:30:22;3.55;;;3.25;;
27666;SDS011;15074;50.940;5.282;2022-10-14T15:32:52;3.30;;;3.08;;
27666;SDS011;15074;50.940;5.282;2022-10-14T15:35:23;4.55;;;3.22;;
27666;SDS011;15074;50.940;5.282;2022-10-14T15:37:50;4.32;;;3.60;;
27666;SDS011;15074;50.940;5.282;2022-10-14T15:40:20;14.18;;;4.38;;
27666;SDS011;15074;50.940;5.282;2022-10-14T15:42:50;5.22;;;4.72;;
27666;SDS011;15074;50.940;5.282;2022-10-14T15:45:16;4.45;;;4.15;;
27666;SDS011;15074;50.940;5.282;2022-10-14T15:47:44;5.32;;;4.93;;
27666;SDS011;15074;50.940;5.282;2022-10-14T15:50:15;5.00;;;4.60;;
27666;SDS011;15074;50.940;5.282;2022-10-14T15:52:42;5.13;;;4.63;;
27666;SDS011;15074;50.940;5.282;2022-10-14T15:55:13;5.22;;;4.15;;
27666;SDS011;15074;50.940;5.282;2022-10-14T15:57:41;4.68;;;4.28;;
27666;SDS011;15074;50.940;5.282;2022-10-14T16:00:07;4.18;;;3.78;;
27666;SDS011;15074;50.940;5.282;2022-10-14T16:02:34;4.30;;;3.90;;
27666;SDS011;15074;50.940;5.282;2022-10-14T16:05:00;4.10;;;3.80;;
27666;SDS011;15074;50.940;5.282;2022-10-14T16:07:25;3.83;;;3.53;;
27666;SDS011;15074;50.940;5.282;2022-10-14T16:09:51;4.13;;;3.72;;
27666;SDS011;15074;50.940;5.282;2022-10-14T16:12:16;3.65;;;3.35;;
27666;SDS011;15074;50.940;5.282;2022-10-14T16:14:42;3.85;;;3.50;;
27666;SDS011;15074;50.940;5.282;2022-10-14T16:17:08;3.70;;;3.40;;
27666;SDS011;15074;50.940;5.282;2022-10-14T16:19:34;5.20;;;4.50;;
27666;SDS011;15074;50.940;5.282;2022-10-14T16:22:00;6.10;;;4.50;;
27666;SDS011;15074;50.940;5.282;2022-10-14T16:24:25;4.47;;;4.07;;
27666;SDS011;15074;50.940;5.282;2022-10-14T16:26:51;5.28;;;4.78;;
27666;SDS011;15074;50.940;5.282;2022-10-14T16:29:18;4.53;;;3.45;;
27666;SDS011;15074;50.940;5.282;2022-10-14T16:31:45;4.95;;;4.55;;
27666;SDS011;15074;50.940;5.282;2022-10-14T16:34:14;8.35;;;4.68;;
27666;SDS011;15074;50.940;5.282;2022-10-14T16:36:41;9.93;;;5.57;;
27666;SDS011;15074;50.940;5.282;2022-10-14T16:39:08;12.52;;;8.07;;
27666;SDS011;15074;50.940;5.282;2022-10-14T16:41:35;8.43;;;7.65;;
27666;SDS011;15074;50.940;5.282;2022-10-14T16:44:01;7.28;;;6.38;;
27666;SDS011;15074;50.940;5.282;2022-10-14T16:46:28;7.07;;;5.70;;
27666;SDS011;15074;50.940;5.282;2022-10-14T16:49:19;5.85;;;5.35;;
27666;SDS011;15074;50.940;5.282;2022-10-14T16:51:45;6.25;;;5.75;;
27666;SDS011;15074;50.940;5.282;2022-10-14T16:54:10;6.28;;;5.68;;
27666;SDS011;15074;50.940;5.282;2022-10-14T16:56:36;6.13;;;5.63;;
27666;SDS011;15074;50.940;5.282;2022-10-14T16:59:17;6.47;;;5.95;;
27666;SDS011;15074;50.940;5.282;2022-10-14T17:01:43;9.32;;;8.52;;
27666;SDS011;15074;50.940;5.282;2022-10-14T17:04:09;6.82;;;6.22;;
27666;SDS011;15074;50.940;5.282;2022-10-14T17:06:36;6.65;;;6.13;;
27666;SDS011;15074;50.940;5.282;2022-10-14T17:09:02;7.70;;;7.00;;
27666;SDS011;15074;50.940;5.282;2022-10-14T17:11:28;5.75;;;5.35;;
27666;SDS011;15074;50.940;5.282;2022-10-14T17:13:55;6.57;;;5.97;;
27666;SDS011;15074;50.940;5.282;2022-10-14T17:16:23;7.50;;;5.90;;
27666;SDS011;15074;50.940;5.282;2022-10-14T17:18:49;6.50;;;5.95;;
27666;SDS011;15074;50.940;5.282;2022-10-14T17:21:15;7.65;;;7.05;;
27666;SDS011;15074;50.940;5.282;2022-10-14T17:23:41;6.88;;;6.30;;
27666;SDS011;15074;50.940;5.282;2022-10-14T17:26:12;7.35;;;6.65;;
27666;SDS011;15074;50.940;5.282;2022-10-14T17:28:39;8.20;;;7.50;;